Lone Star Executive Airport
KCXO : now visible

Airfield :











YOU CAN JOIN US ON...

 
LOGIN :

Register | Disclaimer

   EN    FR    IT 

 









Legend :    VFR   Marginal VFR   IFR   Intensive IFR   Very Intensive IFR
Visi :
Ceiling :
>= 8 km
>= 3000ft
5 to 8 km
1000 to 3000 ft
1500m to 5 km
500 to 1000 ft
800 to 1500m
200 to 500 ft
< 800m
< 200 ft
Symbols :   Thunderstorms  Fog  Heavy snow  Heavy precipitations  Wind > 20 kt






- Airport Elevation : 245 ft


KCXO - Lone Star Executive

CURRENT METAR :
  • 042228Z 23005KT 10SM CLR 31/21 A2995 RMK AO2 LTG DSNT ALQDS T03110211

EXPIRED METARs :
  • 042213Z 24006KT 10SM VCTS CLR 30/22 A2996 RMK AO2 LTG DSNT SE-W T03000222
  • 042153Z 27007KT 10SM FEW039 FEW046 29/22 A2997 RMK AO2 LTG DSNT NE AND SE AND SW RAB38E48 TSB19E34 SLP145 P0000 T02940222
  • 042140Z 31007KT 10SM VCTS -RA SCT039 29/22 A2997 RMK AO2 LTG DSNT ALQDS RAB38 TSB19E34 P0000 T02940217
  • 042125Z 31011KT 10SM TS FEW060 SCT090 31/22 A2997 RMK AO2 LTG DSNT ALQDS TSB19 T03110222
  • 042112Z 34005KT 10SM VCTS SCT060 BKN075 BKN095 33/22 A2995 RMK AO2 LTG DSNT ALQDS T03280217
  • 042053Z 31007KT 10SM OVC060 34/22 A2996 RMK AO2 LTG DSNT E AND NW SLP140 T03390217 58021
  • 041953Z 22003KT 10SM BKN060 BKN075 35/22 A2998 RMK AO2 SLP148 T03500217

TAF KCXO
Valid from the 04 at 20:00 until the 05 at 18:00 UTC


042017Z 0420/0518 27005KT P6SM VCTS SCT060CB
TEMPO 0420/0422 -TSRA SCT045 BKN060CB
FM050100 VRB02KT P6SM SCT060
FM050600 VRB02KT P6SM FEW060
FM051400 21005KT P6SM SCT060 SCT100
KZHU FIR / North America



MET'MAP, your aeronautical weather chart ! - Copyright ORBIFLY December 2007 - Disclaimer

ORBIFLY MET'MAP TEAM :

Programming & Development : Alexandra Zaïnal
Concept & original design : Baudouin d'Aumeries
Assistance for programming : Marc-Olivier Méhu
Technical & hardware support : Manuel Goepfert

Contact : metmap@orbifly.com




SOURCES & CREDITS :

   NOAA       Earth
Advisory